Time;durP1;ratioP1;P1;durP2;ratioP2;P2;SDS_P1;SDS_P2;PMS_P1;PMS_P2;Temp;Humidity;BMP_temperature;BMP_pressure;BME280_temperature;BME280_humidity;BME280_pressure;Samples;Min_cycle;Max_cycle;Signal;HPM_P1;HPM_P2
2022/06/03 00:01:37;;;;;;;3.22;2.35;;;15.30;99.90;;;;;;4984754;28;20412;-77
2022/06/03 00:04:30;;;;;;;3.05;2.72;;;15.30;99.90;;;;;;5033374;28;20072;-76
2022/06/03 00:07:30;;;;;;;3.85;2.75;;;15.30;99.90;;;;;;5063667;28;20099;-76
2022/06/03 00:10:25;;;;;;;5.10;2.72;;;15.30;99.90;;;;;;5070482;28;20028;-75
2022/06/03 00:13:25;;;;;;;2.95;2.65;;;15.20;99.90;;;;;;5066587;28;20040;-75
2022/06/03 00:16:17;;;;;;;3.72;2.80;;;15.20;99.90;;;;;;5070028;28;20025;-75
2022/06/03 00:19:11;;;;;;;4.07;2.92;;;15.10;99.90;;;;;;5071583;28;20205;-73
2022/06/03 00:22:14;;;;;;;3.30;2.78;;;15.20;99.90;;;;;;5065804;28;20043;-76
2022/06/03 00:24:56;;;;;;;3.30;2.92;;;15.10;99.90;;;;;;5069389;28;20036;-77
2022/06/03 00:27:28;;;;;;;3.92;2.72;;;15.10;99.90;;;;;;5074453;28;20047;-75
2022/06/03 00:30:08;;;;;;;3.58;3.08;;;15.10;99.90;;;;;;5068601;28;20036;-76
2022/06/03 00:32:55;;;;;;;3.10;2.80;;;15.10;99.90;;;;;;5069544;28;20086;-78
2022/06/03 00:35:51;;;;;;;3.20;2.90;;;15.10;99.90;;;;;;5067744;28;20024;-76
2022/06/03 00:38:45;;;;;;;4.18;2.92;;;15.10;99.90;;;;;;5067963;28;20166;-76
2022/06/03 00:41:29;;;;;;;3.75;3.22;;;15.00;99.90;;;;;;5072131;28;20028;-77
2022/06/03 00:44:18;;;;;;;3.63;2.90;;;15.00;99.90;;;;;;5072226;28;20024;-76
2022/06/03 00:47:04;;;;;;;4.13;2.90;;;15.00;99.90;;;;;;5072648;28;20081;-76
2022/06/03 00:49:51;;;;;;;5.53;3.03;;;15.00;99.90;;;;;;5049548;28;20307;-79
2022/06/03 00:52:44;;;;;;;4.40;3.55;;;14.90;99.90;;;;;;5070470;28;20033;-76
2022/06/03 00:55:28;;;;;;;3.95;3.50;;;14.90;99.90;;;;;;5073144;28;20503;-73
2022/06/03 00:58:32;;;;;;;4.35;3.45;;;14.90;99.90;;;;;;5072736;28;20028;-75
2022/06/03 01:01:15;;;;;;;3.63;3.20;;;14.90;99.90;;;;;;5067993;28;20493;-77
2022/06/03 01:03:43;;;;;;;3.65;3.33;;;14.80;99.90;;;;;;5071905;28;20040;-74
2022/06/03 01:06:27;;;;;;;4.50;3.22;;;14.80;99.90;;;;;;5072248;28;20030;-74
2022/06/03 01:09:06;;;;;;;3.47;3.15;;;14.80;99.90;;;;;;5065274;28;20035;-75
2022/06/03 01:12:09;;;;;;;4.03;3.60;;;14.80;99.90;;;;;;5072758;28;20397;-79
2022/06/03 01:15:00;;;;;;;3.88;3.55;;;14.70;99.90;;;;;;5072309;28;20358;-81
2022/06/03 01:17:30;;;;;;;;;;;14.70;99.90;;;;;;5071597;28;20028;-74
2022/06/03 01:20:00;;;;;;;4.47;3.35;;;14.60;99.90;;;;;;5067962;28;20276;-73
2022/06/03 01:23:05;;;;;;;5.55;3.80;;;14.60;99.90;;;;;;5064748;28;20111;-74
2022/06/03 01:25:59;;;;;;;3.92;3.30;;;14.50;99.90;;;;;;5067608;28;20730;-74
2022/06/03 01:28:34;;;;;;;4.07;3.60;;;14.50;99.90;;;;;;5072074;28;20044;-74
2022/06/03 01:31:37;;;;;;;5.68;4.00;;;14.50;99.90;;;;;;5066629;28;20024;-74
2022/06/03 01:34:02;;;;;;;6.55;3.70;;;14.50;99.90;;;;;;5070470;28;20431;-74
2022/06/03 01:37:05;;;;;;;6.55;4.07;;;14.50;99.90;;;;;;5071213;28;20032;-74
2022/06/03 01:39:56;;;;;;;4.72;3.80;;;14.50;99.90;;;;;;5069646;28;20099;-74
2022/06/03 01:42:43;;;;;;;4.85;3.67;;;14.40;99.90;;;;;;5068255;28;20033;-74
2022/06/03 01:45:14;;;;;;;4.00;3.60;;;14.40;99.90;;;;;;5063054;28;20040;-74
2022/06/03 01:48:17;;;;;;;4.03;3.53;;;14.40;99.90;;;;;;5071465;28;20036;-74
2022/06/03 01:51:30;;;;;;;3.88;3.55;;;14.30;99.90;;;;;;5068271;28;20397;-74
2022/06/03 01:54:21;;;;;;;4.32;3.47;;;14.20;99.90;;;;;;5061989;28;20190;-74
2022/06/03 01:56:59;;;;;;;6.40;3.75;;;14.20;99.90;;;;;;5056473;28;20024;-75
2022/06/03 01:59:27;;;;;;;5.55;4.20;;;14.20;99.90;;;;;;5058091;28;20036;-77
2022/06/03 02:02:18;;;;;;;5.15;4.20;;;14.20;99.90;;;;;;5067028;28;20028;-79
2022/06/03 02:04:54;;;;;;;3.75;3.45;;;14.30;99.90;;;;;;5062997;28;20032;-74
2022/06/03 02:07:50;;;;;;;5.78;4.35;;;14.30;99.90;;;;;;5069371;28;20036;-74
2022/06/03 02:10:50;;;;;;;6.03;4.43;;;14.20;99.90;;;;;;5067478;28;20020;-74
2022/06/03 02:13:37;;;;;;;5.03;3.83;;;14.30;99.90;;;;;;5067600;28;20044;-74
2022/06/03 02:16:40;;;;;;;4.50;3.70;;;14.20;99.90;;;;;;5065960;28;20028;-74
2022/06/03 02:19:33;;;;;;;5.00;3.83;;;14.20;99.90;;;;;;5067079;28;20103;-74
2022/06/03 02:22:56;;;;;;;5.88;4.22;;;14.20;99.90;;;;;;5071527;28;20032;-74
2022/06/03 02:25:49;;;;;;;4.30;3.90;;;14.20;99.90;;;;;;4970737;28;20031;-75
2022/06/03 02:28:38;;;;;;;6.22;4.10;;;14.20;99.90;;;;;;4983635;28;20050;-75
2022/06/03 02:31:14;;;;;;;5.03;3.88;;;14.20;99.90;;;;;;5072217;28;20040;-76
2022/06/03 02:33:40;;;;;;;5.45;3.90;;;14.20;99.90;;;;;;5091199;28;20032;-81
2022/06/03 02:36:09;;;;;;;5.60;4.22;;;14.20;99.90;;;;;;5084792;28;20039;-75
2022/06/03 02:38:49;;;;;;;5.70;4.35;;;14.20;99.90;;;;;;5085147;28;20036;-75
2022/06/03 02:41:23;;;;;;;;;;;14.20;99.90;;;;;;5089922;28;20031;-73
2022/06/03 02:44:20;;;;;;;6.38;4.53;;;14.20;99.90;;;;;;5087764;28;19954;-75
2022/06/03 02:47:05;;;;;;;5.03;4.50;;;14.20;99.90;;;;;;5090554;28;20112;-75
2022/06/03 02:49:37;;;;;;;4.43;3.75;;;14.10;99.90;;;;;;5087109;28;20032;-75
2022/06/03 02:52:21;;;;;;;5.13;3.90;;;14.10;99.90;;;;;;5085815;28;20465;-75
2022/06/03 02:55:06;;;;;;;4.63;3.78;;;14.10;99.90;;;;;;5090805;28;20101;-74
2022/06/03 02:58:11;;;;;;;5.32;3.85;;;14.00;99.90;;;;;;5086503;28;20108;-78
2022/06/03 03:01:11;;;;;;;4.00;3.60;;;14.00;99.90;;;;;;5092166;28;20020;-81
2022/06/03 03:04:08;;;;;;;6.83;4.23;;;14.00;99.90;;;;;;5085908;28;20029;-75
2022/06/03 03:06:55;;;;;;;9.68;4.40;;;14.00;99.90;;;;;;5091395;28;20028;-76
2022/06/03 03:09:57;;;;;;;5.32;3.70;;;13.90;99.90;;;;;;5088123;28;20024;-75
2022/06/03 03:12:47;;;;;;;7.38;4.25;;;13.90;99.90;;;;;;5086522;28;20476;-81
2022/06/03 03:15:19;;;;;;;4.60;3.83;;;13.90;99.90;;;;;;5083565;28;20062;-76
2022/06/03 03:18:05;;;;;;;4.35;3.90;;;13.90;99.90;;;;;;5091335;28;20108;-76
2022/06/03 03:21:09;;;;;;;4.55;3.72;;;13.90;99.90;;;;;;5076906;28;20025;-76
2022/06/03 03:24:08;;;;;;;4.47;3.63;;;13.90;99.90;;;;;;5062376;28;20040;-77
2022/06/03 03:26:54;;;;;;;5.07;4.05;;;13.90;99.90;;;;;;5086415;28;20035;-75
2022/06/03 03:29:39;;;;;;;4.88;3.65;;;13.90;99.90;;;;;;5074675;28;20055;-75
2022/06/03 03:32:16;;;;;;;4.13;3.65;;;13.90;99.90;;;;;;5063268;28;20032;-76
2022/06/03 03:34:56;;;;;;;4.50;4.05;;;13.90;99.90;;;;;;5058230;28;20024;-81
2022/06/03 03:37:56;;;;;;;6.15;4.05;;;13.90;99.90;;;;;;5073343;28;20021;-76
2022/06/03 03:40:59;;;;;;;4.32;3.92;;;13.90;99.90;;;;;;5080841;28;20028;-74
2022/06/03 03:43:58;;;;;;;4.53;3.63;;;14.00;99.90;;;;;;5083058;28;20009;-73
2022/06/03 03:46:46;;;;;;;5.57;4.35;;;13.90;99.90;;;;;;5071154;28;20035;-73
2022/06/03 03:49:53;;;;;;;6.65;4.20;;;14.00;99.90;;;;;;5073660;28;20032;-75
2022/06/03 03:52:56;;;;;;;5.30;4.13;;;14.00;99.90;;;;;;5076492;28;20036;-75
2022/06/03 03:55:43;;;;;;;4.32;3.92;;;14.00;99.90;;;;;;5077040;28;20020;-75
2022/06/03 03:58:21;;;;;;;6.07;4.53;;;14.00;99.90;;;;;;5076085;28;20074;-77
2022/06/03 04:00:58;;;;;;;7.63;3.88;;;14.10;99.90;;;;;;5069140;28;20037;-76
2022/06/03 04:04:01;;;;;;;5.18;4.10;;;14.10;99.90;;;;;;5074305;28;20535;-75
2022/06/03 04:06:57;;;;;;;6.40;4.65;;;14.20;99.90;;;;;;5067180;28;20428;-75
2022/06/03 04:09:23;;;;;;;6.65;4.25;;;14.20;99.90;;;;;;5073474;28;20047;-76
2022/06/03 04:12:00;;;;;;;4.82;3.67;;;14.20;99.90;;;;;;5074301;28;20033;-75
2022/06/03 04:14:54;;;;;;;4.20;3.55;;;14.20;99.90;;;;;;5071145;28;20029;-75
2022/06/03 04:17:26;;;;;;;5.47;4.25;;;14.20;99.90;;;;;;5072894;28;20424;-75
2022/06/03 04:20:20;;;;;;;6.22;4.13;;;14.10;99.90;;;;;;5073751;28;20031;-76
2022/06/03 04:23:11;;;;;;;4.82;4.22;;;14.20;99.90;;;;;;5069011;28;20500;-81
2022/06/03 04:26:01;;;;;;;4.80;4.30;;;14.20;99.90;;;;;;5065614;28;20032;-74
2022/06/03 04:29:02;;;;;;;6.18;4.28;;;14.10;99.90;;;;;;5070949;28;20106;-75
2022/06/03 04:31:30;;;;;;;4.93;4.32;;;14.10;99.90;;;;;;5051988;28;20094;-75
2022/06/03 04:34:05;;;;;;;5.65;4.40;;;14.10;99.90;;;;;;5066221;28;20385;-76
2022/06/03 04:36:37;;;;;;;4.50;3.47;;;14.20;99.90;;;;;;5064351;28;20029;-76
2022/06/03 04:39:09;;;;;;;4.50;4.10;;;14.20;99.90;;;;;;5064206;28;20029;-75
2022/06/03 04:41:41;;;;;;;4.50;3.70;;;14.20;99.90;;;;;;5067526;28;20488;-74
2022/06/03 04:44:45;;;;;;;4.10;3.70;;;14.30;99.90;;;;;;5066637;28;20505;-74
2022/06/03 04:47:44;;;;;;;5.75;3.83;;;14.40;99.90;;;;;;5066583;28;20021;-74
2022/06/03 04:50:13;;;;;;;5.07;4.13;;;14.50;99.90;;;;;;5072473;28;20025;-74
2022/06/03 04:53:03;;;;;;;4.05;3.65;;;14.60;99.90;;;;;;5073188;28;20291;-74
2022/06/03 04:56:02;;;;;;;9.50;5.40;;;14.80;99.90;;;;;;5048440;28;20028;-74
2022/06/03 04:59:19;;;;;;;4.72;4.32;;;15.00;99.90;;;;;;5071764;28;20389;-74
2022/06/03 05:02:22;;;;;;;5.93;4.75;;;15.10;99.90;;;;;;5028151;28;20136;-80
2022/06/03 05:05:16;;;;;;;5.07;4.55;;;15.20;99.90;;;;;;5069268;28;20032;-81
2022/06/03 05:08:03;;;;;;;6.03;4.97;;;15.40;99.90;;;;;;5024606;28;20048;-75
2022/06/03 05:10:47;;;;;;;7.45;4.75;;;15.60;99.90;;;;;;5067060;28;20044;-74
2022/06/03 05:14:01;;;;;;;5.10;4.57;;;15.90;99.90;;;;;;5069680;28;20032;-74
2022/06/03 05:17:02;;;;;;;7.70;5.15;;;16.00;99.90;;;;;;4978499;28;20043;-75
2022/06/03 05:19:42;;;;;;;9.52;5.18;;;16.20;99.90;;;;;;4977885;28;20396;-74
2022/06/03 05:22:26;;;;;;;;;;;16.30;99.90;;;;;;4977152;28;20039;-75
2022/06/03 05:25:19;;;;;;;10.07;5.93;;;16.40;99.90;;;;;;4972077;28;19918;-81
2022/06/03 05:27:57;;;;;;;6.95;5.72;;;16.60;99.90;;;;;;4979995;28;20084;-74
2022/06/03 05:30:53;;;;;;;8.52;5.78;;;16.80;99.90;;;;;;5011559;28;20115;-76
2022/06/03 05:33:46;;;;;;;7.22;6.05;;;16.90;99.90;;;;;;5011756;28;20121;-83
2022/06/03 05:36:28;;;;;;;8.15;5.50;;;17.00;99.90;;;;;;5008253;28;20511;-83
2022/06/03 05:39:35;;;;;;;8.57;6.38;;;17.10;99.90;;;;;;5027551;28;20030;-76
2022/06/03 05:42:30;;;;;;;8.50;6.22;;;17.30;99.90;;;;;;4994026;28;20073;-75
2022/06/03 05:45:10;;;;;;;7.78;5.47;;;17.40;99.90;;;;;;5006422;28;20084;-75
2022/06/03 05:47:51;;;;;;;7.15;4.95;;;17.40;99.90;;;;;;5015848;28;20831;-72
2022/06/03 05:50:24;;;;;;;11.57;5.47;;;17.50;99.90;;;;;;5011074;28;20033;-73
2022/06/03 05:53:17;;;;;;;9.15;5.38;;;17.70;99.90;;;;;;5043401;28;20378;-77
2022/06/03 05:55:48;;;;;;;9.45;5.65;;;17.80;99.90;;;;;;5091181;28;20099;-73
2022/06/03 05:58:13;;;;;;;6.05;5.15;;;18.00;99.90;;;;;;5090239;28;20028;-74
2022/06/03 06:00:52;;;;;;;8.02;5.28;;;18.10;99.90;;;;;;5091544;28;20028;-74
2022/06/03 06:03:33;;;;;;;6.40;4.88;;;18.20;99.90;;;;;;5082896;28;20029;-74
2022/06/03 06:05:58;;;;;;;6.45;4.82;;;18.20;99.90;;;;;;5081063;28;20031;-73
2022/06/03 06:08:36;;;;;;;6.43;4.13;;;18.20;99.90;;;;;;5083242;28;20468;-73
2022/06/03 06:11:32;;;;;;;6.57;4.43;;;18.30;99.90;;;;;;5085402;28;20448;-73
2022/06/03 06:14:06;;;;;;;10.35;4.70;;;18.40;99.90;;;;;;5057362;28;20034;-75
2022/06/03 06:16:41;;;;;;;5.35;4.72;;;18.50;99.90;;;;;;5084783;28;20039;-72
2022/06/03 06:19:34;;;;;;;7.07;4.93;;;18.70;99.90;;;;;;5098977;28;20024;-72
2022/06/03 06:22:12;;;;;;;6.72;4.90;;;18.90;99.90;;;;;;5071618;28;20466;-72
2022/06/03 06:24:57;;;;;;;5.88;4.25;;;19.00;99.90;;;;;;5089139;28;20107;-73
2022/06/03 06:27:38;;;;;;;7.70;4.75;;;19.10;99.90;;;;;;5081281;28;20041;-75
2022/06/03 06:30:42;;;;;;;7.20;4.72;;;19.30;99.90;;;;;;5070765;28;20044;-76
2022/06/03 06:33:29;;;;;;;7.13;4.50;;;19.40;99.90;;;;;;5070433;28;21782;-74
2022/06/03 06:36:13;;;;;;;5.57;3.60;;;19.40;99.90;;;;;;5064089;28;20021;-77
2022/06/03 06:38:48;;;;;;;3.63;3.33;;;19.50;99.90;;;;;;5067092;28;20050;-75
2022/06/03 06:41:26;;;;;;;3.65;3.35;;;19.60;99.90;;;;;;5068099;28;20127;-75
2022/06/03 06:44:00;;;;;;;5.93;3.97;;;19.70;99.90;;;;;;5065015;28;20037;-81
2022/06/03 06:46:25;;;;;;;7.57;4.18;;;19.80;99.90;;;;;;5069006;28;20103;-77
2022/06/03 06:49:06;;;;;;;7.80;3.72;;;20.00;99.90;;;;;;5069331;28;20477;-80
2022/06/03 06:52:07;;;;;;;3.78;2.97;;;20.20;99.90;;;;;;5071935;28;20082;-76
2022/06/03 06:54:41;;;;;;;4.47;3.55;;;20.40;99.90;;;;;;5050051;28;20115;-75
2022/06/03 06:57:45;;;;;;;3.88;3.45;;;20.60;99.90;;;;;;5050207;28;20509;-75
2022/06/03 07:00:16;;;;;;;3.83;3.17;;;20.90;99.90;;;;;;5018664;28;20048;-76
2022/06/03 07:02:48;;;;;;;5.57;3.13;;;21.00;99.90;;;;;;5061291;28;20070;-76
2022/06/03 07:05:18;;;;;;;7.38;4.70;;;21.10;99.90;;;;;;5068198;28;20017;-78
2022/06/03 07:07:53;;;;;;;5.23;3.50;;;21.30;99.90;;;;;;5063752;28;20025;-76
2022/06/03 07:10:23;;;;;;;3.85;3.40;;;21.30;99.90;;;;;;5064902;28;20021;-74
2022/06/03 07:12:56;;;;;;;;;;;21.50;99.90;;;;;;5068578;28;20034;-74
2022/06/03 07:15:25;;;;;;;6.40;3.40;;;21.70;99.90;;;;;;5062938;28;19911;-72
2022/06/03 07:21:10;;;;;;;13.85;4.63;;;21.90;99.90;;;;;;5067698;28;20031;-74
2022/06/03 07:23:56;;;;;;;5.78;3.60;;;22.10;99.90;;;;;;5069397;28;20098;-74
2022/06/03 07:26:39;;;;;;;3.95;3.03;;;22.20;99.80;;;;;;5070104;28;20056;-74
2022/06/03 07:29:14;;;;;;;5.78;3.13;;;22.30;99.50;;;;;;5069445;28;20052;-72
2022/06/03 07:32:07;;;;;;;7.53;3.97;;;22.40;99.30;;;;;;5074808;28;20029;-74
2022/06/03 07:34:45;;;;;;;7.40;3.55;;;22.60;99.20;;;;;;5071898;28;20037;-71
2022/06/03 07:37:19;;;;;;;3.72;3.28;;;22.70;98.70;;;;;;5071871;28;20393;-71
2022/06/03 07:40:27;;;;;;;5.10;3.72;;;22.80;98.30;;;;;;5074495;28;20033;-69
2022/06/03 07:43:13;;;;;;;3.58;3.08;;;23.00;97.90;;;;;;5072857;28;20044;-72
2022/06/03 07:46:12;;;;;;;3.08;2.78;;;23.20;97.50;;;;;;5069864;28;20073;-75
2022/06/03 07:48:39;;;;;;;3.58;3.10;;;23.40;97.20;;;;;;5067603;28;20534;-75
2022/06/03 07:51:31;;;;;;;5.18;3.15;;;23.50;96.80;;;;;;5070457;28;20107;-76
2022/06/03 07:54:07;;;;;;;21.40;6.90;;;23.50;96.50;;;;;;5072488;28;20040;-80
2022/06/03 07:56:35;;;;;;;4.57;3.22;;;23.50;96.90;;;;;;5056121;28;20053;-77
2022/06/03 07:59:04;;;;;;;3.05;2.75;;;23.60;96.30;;;;;;5072990;28;20086;-76
2022/06/03 08:01:36;;;;;;;5.05;3.55;;;23.80;96.40;;;;;;5055923;28;20028;-75
2022/06/03 08:04:04;;;;;;;3.80;2.95;;;23.90;95.80;;;;;;5067380;28;20440;-76
2022/06/03 08:12:26;;;;;;;7.78;4.15;;;24.20;95.30;;;;;;5060667;28;20458;-76
2022/06/03 08:14:52;;;;;;;3.28;2.83;;;24.20;94.40;;;;;;5070251;28;20025;-76
2022/06/03 08:17:19;;;;;;;5.93;4.05;;;24.30;94.40;;;;;;5064649;28;20647;-77
2022/06/03 08:19:45;;;;;;;4.53;4.10;;;24.30;94.00;;;;;;5045236;28;20381;-75
2022/06/03 08:22:14;;;;;;;5.97;3.22;;;24.40;93.40;;;;;;5079266;28;20063;-75
2022/06/03 08:24:45;;;;;;;7.45;3.40;;;24.50;93.30;;;;;;5082465;28;20037;-75
2022/06/03 08:27:15;;;;;;;4.50;3.42;;;24.50;93.00;;;;;;5086430;28;20446;-71
2022/06/03 08:30:09;;;;;;;5.18;3.05;;;24.60;92.70;;;;;;5080608;28;20051;-75
2022/06/03 08:32:40;;;;;;;7.07;3.08;;;24.50;92.90;;;;;;5080410;28;20128;-73
2022/06/03 08:35:14;;;;;;;5.13;3.25;;;24.50;92.60;;;;;;5080454;28;20036;-72
2022/06/03 08:38:12;;;;;;;3.85;3.03;;;24.50;92.50;;;;;;5091211;28;20587;-75
2022/06/03 08:40:44;;;;;;;7.13;3.20;;;24.50;92.90;;;;;;5056716;28;20036;-73
2022/06/03 08:43:39;;;;;;;4.20;3.08;;;24.60;92.30;;;;;;5071696;28;20089;-75
2022/06/03 08:46:35;;;;;;;4.13;3.00;;;24.80;92.30;;;;;;5073354;28;20470;-75
2022/06/03 08:49:04;;;;;;;4.82;3.33;;;24.90;91.80;;;;;;5071851;28;20053;-76
2022/06/03 08:51:40;;;;;;;8.13;3.00;;;25.00;91.20;;;;;;5073968;28;20106;-74
2022/06/03 08:54:16;;;;;;;10.00;3.08;;;25.20;91.00;;;;;;5068876;28;20039;-73
2022/06/03 08:56:44;;;;;;;4.70;3.08;;;25.20;91.00;;;;;;5073207;28;20033;-73
2022/06/03 08:59:23;;;;;;;8.25;3.17;;;25.40;90.80;;;;;;5068240;28;20386;-73
2022/06/03 09:02:00;;;;;;;3.00;2.70;;;25.40;90.50;;;;;;5071502;28;20059;-74
2022/06/03 09:04:33;;;;;;;4.90;2.90;;;25.50;90.50;;;;;;5055130;28;20021;-71
2022/06/03 09:07:26;;;;;;;7.22;2.90;;;25.60;90.30;;;;;;5071598;28;20029;-77
2022/06/03 09:10:05;;;;;;;11.35;2.83;;;25.80;89.50;;;;;;5071380;28;20046;-73
2022/06/03 09:12:31;;;;;;;5.35;2.45;;;26.00;88.80;;;;;;5067787;28;20024;-73
2022/06/03 09:15:03;;;;;;;5.82;2.72;;;26.20;88.40;;;;;;5054704;28;20184;-73
2022/06/03 09:17:35;;;;;;;5.30;3.00;;;26.40;88.60;;;;;;5073407;28;20484;-73
2022/06/03 09:20:08;;;;;;;14.13;3.70;;;26.70;87.90;;;;;;5071830;28;20025;-78
2022/06/03 09:22:34;;;;;;;25.55;3.85;;;26.90;86.50;;;;;;5067952;28;20421;-73
2022/06/03 09:25:03;;;;;;;13.65;3.20;;;27.10;85.40;;;;;;5072285;28;20074;-79
2022/06/03 09:27:31;;;;;;;7.07;3.17;;;;;;;;;;5072951;28;20083;-73
2022/06/03 09:29:59;;;;;;;5.88;3.15;;;27.40;85.50;;;;;;5072377;28;20457;-72
2022/06/03 09:32:26;;;;;;;5.80;3.85;;;27.50;82.60;;;;;;5072619;28;20044;-73
2022/06/03 09:35:01;;;;;;;28.00;3.92;;;27.60;82.40;;;;;;5063445;28;20044;-73
2022/06/03 09:37:27;;;;;;;3.90;2.88;;;;;;;;;;5068632;28;20029;-73
2022/06/03 09:39:55;;;;;;;4.05;3.13;;;27.70;82.80;;;;;;5069446;28;20099;-74
2022/06/03 09:42:22;;;;;;;5.50;2.92;;;27.90;82.10;;;;;;5064003;28;20029;-75
2022/06/03 09:44:50;;;;;;;9.60;3.85;;;28.00;81.50;;;;;;5070018;28;20039;-74
2022/06/03 09:47:19;;;;;;;9.55;3.53;;;28.10;80.30;;;;;;5071011;28;20033;-74
2022/06/03 09:49:47;;;;;;;4.45;3.30;;;28.00;80.80;;;;;;5070446;28;20035;-76
2022/06/03 09:52:17;;;;;;;5.97;3.30;;;28.10;79.80;;;;;;5070864;28;20083;-72
2022/06/03 09:54:44;;;;;;;3.28;2.70;;;28.20;79.30;;;;;;5072202;28;20024;-73
2022/06/03 09:57:33;;;;;;;5.22;3.88;;;28.20;78.60;;;;;;5064431;28;20044;-74
2022/06/03 10:00:25;;;;;;;56.60;4.57;;;28.30;78.50;;;;;;5061410;28;20025;-74
2022/06/03 10:02:55;;;;;;;8.15;3.45;;;;;;;;;;5071522;28;20032;-73
2022/06/03 10:05:22;;;;;;;11.63;3.33;;;;;;;;;;5060220;28;20525;-73
2022/06/03 10:07:51;;;;;;;3.65;3.20;;;;;;;;;;5063525;28;20028;-73
2022/06/03 10:13:04;;;;;;;7.13;3.30;;;;;;;;;;5069307;28;20101;-76
2022/06/03 10:15:38;;;;;;;6.03;3.60;;;;;;;;;;5063135;28;20024;-73
2022/06/03 10:18:25;;;;;;;3.88;3.30;;;;;;;;;;5064935;28;20102;-77
2022/06/03 10:20:52;;;;;;;3.88;2.90;;;;;;;;;;5063818;28;20032;-76
2022/06/03 10:23:22;;;;;;;6.90;3.33;;;;;;;;;;5060247;28;20040;-74
2022/06/03 10:25:49;;;;;;;6.57;3.78;;;;;;;;;;5068527;28;20052;-73
2022/06/03 10:28:16;;;;;;;4.28;3.08;;;;;;;;;;5070414;28;20048;-73
2022/06/03 10:30:43;;;;;;;5.55;2.70;;;;;;;;;;5062941;28;20146;-72
2022/06/03 10:33:16;;;;;;;5.20;2.88;;;;;;;;;;5070828;28;20036;-72
2022/06/03 10:35:43;;;;;;;4.38;3.15;;;;;;;;;;5070462;28;20045;-73
2022/06/03 10:38:10;;;;;;;6.70;3.10;;;;;;;;;;5069418;28;20078;-73
2022/06/03 10:40:39;;;;;;;3.45;3.00;;;;;;;;;;5063243;28;20151;-72
2022/06/03 10:43:06;;;;;;;5.78;2.88;;;;;;;;;;5070318;28;20485;-77
2022/06/03 10:45:34;;;;;;;5.28;3.38;;;;;;;;;;5070628;28;20024;-73
2022/06/03 10:48:00;;;;;;;6.68;2.70;;;;;;;;;;5070502;28;20021;-72
2022/06/03 10:50:31;;;;;;;4.70;2.45;;;;;;;;;;5051720;28;20020;-72
2022/06/03 11:01:41;;;;;;;6.25;2.85;;;;;;;;;;5070746;28;20386;-73
2022/06/03 11:04:08;;;;;;;9.65;3.40;;;;;;;;;;5070387;28;20129;-78
2022/06/03 11:06:36;;;;;;;7.70;3.00;;;;;;;;;;5061324;28;20051;-71
2022/06/03 11:09:06;;;;;;;8.05;2.95;;;;;;;;;;5070425;28;20039;-72
2022/06/03 11:11:35;;;;;;;2.53;2.20;;;;;;;;;;5070384;28;20023;-73
2022/06/03 11:14:19;;;;;;;5.13;2.88;;;;;;;;;;5070599;28;20028;-73
2022/06/03 11:17:03;;;;;;;3.30;2.78;;;;;;;;;;5069026;28;20032;-74
2022/06/03 11:19:33;;;;;;;4.15;2.63;;;;;;;;;;5063995;28;20020;-73
2022/06/03 11:22:19;;;;;;;3.42;2.65;;;;;;;;;;5069739;28;20058;-72
2022/06/03 11:24:55;;;;;;;4.28;2.42;;;;;;;;;;5070344;28;20032;-73
2022/06/03 11:27:25;;;;;;;4.40;2.28;;;;;;;;;;5063152;28;20131;-73
2022/06/03 11:29:52;;;;;;;4.00;2.53;;;;;;;;;;5070873;28;20029;-73
2022/06/03 11:32:19;;;;;;;2.90;2.67;;;;;;;;;;5062548;28;20085;-73
2022/06/03 11:34:54;;;;;;;2.58;2.38;;;;;;;;;;5070095;28;20047;-73
2022/06/03 11:37:29;;;;;;;4.43;2.25;;;;;;;;;;5064177;28;20151;-73
2022/06/03 11:39:58;;;;;;;4.70;2.42;;;;;;;;;;5070728;28;20029;-72
2022/06/03 11:42:31;;;;;;;4.77;2.50;;;;;;;;;;5060403;28;20101;-74
2022/06/03 11:45:17;;;;;;;2.65;2.25;;;;;;;;;;5070384;28;20493;-73
2022/06/03 11:47:49;;;;;;;5.30;2.70;;;;;;;;;;5070933;28;20108;-73
2022/06/03 11:50:16;;;;;;;2.85;2.20;;;;;;;;;;5052745;28;20500;-73
2022/06/03 11:52:42;;;;;;;4.72;2.63;;;;;;;;;;5052565;28;20040;-73
2022/06/03 11:55:10;;;;;;;4.13;2.90;;;;;;;;;;5066884;28;20100;-75
2022/06/03 11:57:39;;;;;;;3.47;3.05;;;;;;;;;;5070854;28;20485;-72
2022/06/03 12:00:07;;;;;;;3.78;2.80;;;;;;;;;;5070980;28;20036;-72
2022/06/03 12:02:39;;;;;;;6.05;3.10;;;;;;;;;;5069883;28;20032;-73
2022/06/03 12:05:09;;;;;;;5.72;2.88;;;;;;;;;;5046276;28;20020;-73
2022/06/03 12:07:41;;;;;;;6.75;3.15;;;;;;;;;;5069790;28;20111;-72
2022/06/03 12:10:07;;;;;;;6.35;3.15;;;;;;;;;;5073452;28;20371;-72
2022/06/03 12:15:29;;;;;;;6.47;2.58;;;;;;;;;;5073235;28;20051;-72
2022/06/03 12:17:55;;;;;;;9.75;3.20;;;;;;;;;;5069102;28;20028;-72
2022/06/03 12:20:41;;;;;;;7.93;3.25;;;;;;;;;;5072990;28;20029;-72
2022/06/03 12:23:13;;;;;;;7.95;3.08;;;;;;;;;;5073414;28;20028;-72
2022/06/03 12:25:51;;;;;;;5.25;2.70;;;;;;;;;;5074223;28;20036;-72
2022/06/03 12:28:32;;;;;;;6.72;3.25;;;;;;;;;;5070630;28;20442;-72
2022/06/03 12:30:59;;;;;;;5.32;3.00;;;;;;;;;;5073458;28;20355;-72
2022/06/03 12:33:48;;;;;;;5.20;2.83;;;;;;;;;;5072022;28;20029;-72
2022/06/03 12:36:33;;;;;;;7.22;2.72;;;;;;;;;;5017648;28;20417;-73
2022/06/03 12:38:59;;;;;;;7.47;3.08;;;;;;;;;;5063154;28;20035;-73
2022/06/03 12:41:44;;;;;;;3.63;2.78;;;;;;;;;;5062454;28;20099;-72
2022/06/03 12:44:30;;;;;;;6.90;2.97;;;;;;;;;;5060682;28;20035;-75
2022/06/03 12:47:16;;;;;;;4.43;2.80;;;;;;;;;;5063624;28;20033;-72
2022/06/03 12:49:44;;;;;;;7.28;2.53;;;;;;;;;;5066600;28;20538;-72
2022/06/03 12:52:31;;;;;;;13.05;2.70;;;;;;;;;;5072511;28;20057;-75
2022/06/03 12:54:59;;;;;;;3.55;2.85;;;;;;;;;;5046390;28;20033;-72
2022/06/03 12:57:46;;;;;;;5.10;2.25;;;;;;;;;;5061324;28;20029;-72
2022/06/03 13:00:16;;;;;;;2.33;2.00;;;;;;;;;;5045651;28;20435;-76
2022/06/03 13:02:52;;;;;;;6.70;3.15;;;;;;;;;;5057469;28;20112;-72
2022/06/03 13:05:28;;;;;;;6.07;2.80;;;;;;;;;;5061764;28;20017;-72
2022/06/03 13:08:05;;;;;;;2.83;2.63;;;;;;;;;;5057684;28;20025;-74
2022/06/03 13:10:51;;;;;;;10.00;3.00;;;;;;;;;;5053190;28;20029;-73
2022/06/03 13:13:24;;;;;;;5.35;2.88;;;;;;;;;;5063664;28;20035;-75
2022/06/03 13:15:51;;;;;;;5.45;3.00;;;;;;;;;;5059053;28;20438;-74
2022/06/03 13:18:37;;;;;;;11.13;4.22;;;;;;;;;;5059048;28;20025;-74
2022/06/03 13:21:03;;;;;;;4.43;2.92;;;;;;;;;;5055193;28;20048;-74
2022/06/03 13:23:29;;;;;;;5.30;2.92;;;;;;;;;;5065629;28;20082;-73
2022/06/03 13:25:56;;;;;;;4.05;2.63;;;;;;;;;;5069153;28;20024;-73
2022/06/03 13:28:36;;;;;;;5.68;2.75;;;;;;;;;;5071185;28;20119;-77
2022/06/03 13:31:04;;;;;;;3.70;2.58;;;;;;;;;;5067230;28;20025;-74
2022/06/03 13:33:30;;;;;;;4.35;3.75;;;;;;;;;;5056707;28;20029;-74
2022/06/03 13:36:04;;;;;;;6.15;2.78;;;;;;;;;;5059865;28;20043;-72
2022/06/03 13:38:42;;;;;;;6.43;3.50;;;;;;;;;;5038132;28;20024;-73
2022/06/03 13:44:05;;;;;;;8.15;3.20;;;;;;;;;;5059371;28;20044;-73
2022/06/03 13:46:31;;;;;;;6.50;3.15;;;;;;;;;;5055754;28;20051;-73
2022/06/03 13:48:59;;;;;;;8.23;3.60;;;;;;;;;;5056803;28;20025;-73
2022/06/03 13:51:41;;;;;;;5.75;2.50;;;;;;;;;;5059121;28;20027;-73
2022/06/03 13:54:15;;;;;;;5.70;3.05;;;;;;;;;;5041941;28;20655;-73
2022/06/03 13:56:51;;;;;;;3.92;2.88;;;;;;;;;;5055090;28;20036;-73
2022/06/03 13:59:17;;;;;;;5.28;3.95;;;;;;;;;;5058863;28;20083;-75
2022/06/03 14:01:44;;;;;;;9.13;3.33;;;;;;;;;;5064992;28;20074;-73
2022/06/03 14:04:17;;;;;;;4.68;3.17;;;;;;;;;;5060516;28;20025;-73
2022/06/03 14:06:47;;;;;;;4.90;3.20;;;;;;;;;;5059806;28;20033;-75
2022/06/03 14:09:19;;;;;;;5.97;3.55;;;;;;;;;;5058422;28;20150;-74
2022/06/03 14:11:47;;;;;;;7.88;3.42;;;;;;;;;;5058302;28;20028;-74
2022/06/03 14:14:18;;;;;;;3.78;3.20;;;;;;;;;;5061954;28;20104;-73
2022/06/03 14:16:50;;;;;;;4.82;2.90;;;;;;;;;;5057569;28;20118;-73
2022/06/03 14:19:27;;;;;;;5.15;3.45;;;;;;;;;;5052491;28;20025;-83
2022/06/03 14:21:54;;;;;;;5.63;2.90;;;;;;;;;;5056346;28;20039;-76
2022/06/03 14:24:26;;;;;;;4.45;3.08;;;;;;;;;;5056023;28;20016;-78
2022/06/03 14:27:01;;;;;;;8.13;3.92;;;;;;;;;;5055887;28;20028;-74
2022/06/03 14:29:32;;;;;;;7.93;3.40;;;;;;;;;;5053485;28;20036;-74
2022/06/03 14:32:04;;;;;;;3.72;2.70;;;;;;;;;;5055387;28;20027;-75
2022/06/03 14:34:36;;;;;;;6.28;2.97;;;;;;;;;;5050262;28;20107;-75
2022/06/03 14:37:03;;;;;;;5.45;2.47;;;;;;;;;;5061311;28;20035;-73
2022/06/03 14:39:31;;;;;;;5.85;2.83;;;;;;;;;;5059633;28;20073;-74
2022/06/03 14:42:00;;;;;;;3.78;2.85;;;;;;;;;;5059344;28;20083;-77
2022/06/03 14:44:27;;;;;;;5.03;3.50;;;;;;;;;;5056504;28;20021;-74
2022/06/03 14:46:56;;;;;;;5.18;3.05;;;;;;;;;;5058024;28;20286;-75
2022/06/03 14:49:27;;;;;;;5.15;3.17;;;;;;;;;;5063596;28;20021;-73
2022/06/03 14:52:00;;;;;;;7.00;3.30;;;;;;;;;;5058742;28;20074;-74
2022/06/03 14:54:28;;;;;;;6.50;3.00;;;;;;;;;;5057550;28;20046;-73
2022/06/03 14:56:57;;;;;;;6.22;3.42;;;;;;;;;;5057397;28;20389;-72
2022/06/03 14:59:43;;;;;;;4.50;3.05;;;;;;;;;;5058956;28;20035;-72